createdAt,value
2023-01-29T00:07:01.767Z,40.26
2023-01-29T00:17:03.355Z,40.51
2023-01-29T00:27:05.637Z,40.78
2023-01-29T00:37:08.802Z,40.62
2023-01-29T00:47:28.903Z,40.26
2023-01-29T00:57:32.712Z,40.03
2023-01-29T01:07:34.160Z,39.66
2023-01-29T01:17:36.271Z,39.60
2023-01-29T01:27:41.164Z,39.41
2023-01-29T01:37:42.830Z,39.21
2023-01-29T01:47:46.941Z,39.15
2023-01-29T01:57:49.535Z,39.13
2023-01-29T02:08:09.183Z,39.05
2023-01-29T02:18:10.848Z,39.09
2023-01-29T02:28:16.157Z,39.14
2023-01-29T02:38:18.110Z,39.06
2023-01-29T02:48:22.092Z,38.99
2023-01-29T02:58:42.336Z,39.04
2023-01-29T03:08:55.545Z,39.15
2023-01-29T03:19:03.067Z,39.30
2023-01-29T03:29:22.970Z,39.58
2023-01-29T03:39:28.528Z,39.73
2023-01-29T03:49:43.538Z,39.76
2023-01-29T03:59:53.556Z,39.94
2023-01-29T04:09:58.688Z,40.16
2023-01-29T04:20:00.942Z,40.50
2023-01-29T04:30:37.231Z,40.48
2023-01-29T04:41:03.193Z,40.02
2023-01-29T04:51:17.966Z,39.85
2023-01-29T05:01:19.421Z,39.56
2023-01-29T05:11:20.902Z,39.36
2023-01-29T05:21:23.241Z,39.19
2023-01-29T05:31:24.840Z,39.03
2023-01-29T05:41:26.295Z,38.98
2023-01-29T05:51:27.677Z,38.82
2023-01-29T06:01:29.402Z,38.82
2023-01-29T06:11:30.974Z,38.92
2023-01-29T06:21:32.404Z,38.87
2023-01-29T06:31:38.879Z,38.97
2023-01-29T06:41:40.990Z,38.88
2023-01-29T06:51:42.374Z,38.72
2023-01-29T07:01:44.221Z,38.86
2023-01-29T07:11:45.887Z,38.69
2023-01-29T07:21:47.774Z,38.85
2023-01-29T07:31:49.348Z,38.75
2023-01-29T07:41:50.840Z,38.71
2023-01-29T07:51:52.218Z,38.70
2023-01-29T08:01:53.775Z,38.57
2023-01-29T08:11:55.201Z,38.63
2023-01-29T08:21:57.106Z,38.57
2023-01-29T08:31:58.565Z,38.51
2023-01-29T08:41:59.960Z,38.47
2023-01-29T08:52:03.143Z,38.52
2023-01-29T09:02:05.335Z,38.57
2023-01-29T09:12:06.979Z,38.55
2023-01-29T09:22:10.326Z,38.46
2023-01-29T09:32:12.531Z,38.38
2023-01-29T09:42:22.080Z,38.07
2023-01-29T09:52:28.344Z,38.03
2023-01-29T10:02:43.121Z,38.08
2023-01-29T10:12:58.022Z,37.90
2023-01-29T10:23:16.695Z,37.89
2023-01-29T10:33:25.875Z,37.69
2023-01-29T10:43:55.482Z,37.69
2023-01-29T10:54:15.731Z,37.87
2023-01-29T11:04:17.141Z,37.89
2023-01-29T11:14:31.137Z,37.69
2023-01-29T11:24:32.683Z,37.79
2023-01-29T11:34:34.296Z,37.78
2023-01-29T11:44:41.495Z,37.79
2023-01-29T11:55:21.606Z,37.77
2023-01-29T12:05:24.393Z,37.70
2023-01-29T12:15:25.818Z,37.40
2023-01-29T12:25:39.533Z,37.87
2023-01-29T12:36:02.398Z,37.69
2023-01-29T12:46:03.838Z,37.65
2023-01-29T12:56:08.022Z,37.78
2023-01-29T13:06:11.901Z,37.64
2023-01-29T13:16:13.379Z,37.54
2023-01-29T13:26:18.134Z,37.69
2023-01-29T13:36:24.859Z,37.88
2023-01-29T13:46:26.381Z,38.04
2023-01-29T13:56:34.120Z,38.00
2023-01-29T14:06:38.509Z,38.23
2023-01-29T14:16:40.155Z,38.31
2023-01-29T14:26:45.054Z,38.45
2023-01-29T14:36:47.067Z,38.71
2023-01-29T14:46:48.599Z,38.77
2023-01-29T14:56:59.858Z,38.75
2023-01-29T15:07:04.625Z,38.68
2023-01-29T15:17:18.612Z,38.91
2023-01-29T15:27:20.022Z,39.02
2023-01-29T15:37:29.113Z,38.92
2023-01-29T15:47:31.189Z,39.07
2023-01-29T15:57:37.349Z,38.99
2023-01-29T16:07:38.748Z,38.66
2023-01-29T16:17:40.566Z,38.35
2023-01-29T16:27:43.590Z,38.30
2023-01-29T16:37:48.837Z,37.99
2023-01-29T16:48:00.376Z,37.97
2023-01-29T16:58:04.543Z,37.80
2023-01-29T17:08:06.374Z,37.71
2023-01-29T17:18:15.811Z,37.67
2023-01-29T17:28:17.604Z,37.64
2023-01-29T17:38:25.837Z,37.70
2023-01-29T17:48:28.716Z,37.63
2023-01-29T17:58:30.113Z,37.52
2023-01-29T18:08:33.037Z,37.67
2023-01-29T18:18:34.410Z,37.81
2023-01-29T18:28:35.965Z,37.87
2023-01-29T18:38:37.380Z,37.92
2023-01-29T18:48:40.388Z,38.27
2023-01-29T18:58:45.783Z,38.07
2023-01-29T19:08:53.741Z,38.18
2023-01-29T19:18:58.965Z,38.25
2023-01-29T19:29:00.869Z,38.65
2023-01-29T19:39:02.283Z,38.12
2023-01-29T19:49:06.530Z,38.09
2023-01-29T19:59:07.948Z,37.94
2023-01-29T20:09:09.344Z,37.73
2023-01-29T20:19:13.977Z,37.39
2023-01-29T20:29:16.389Z,37.63
2023-01-29T20:39:17.838Z,37.46
2023-01-29T20:49:19.364Z,37.62
2023-01-29T20:59:20.794Z,37.68
2023-01-29T21:09:22.181Z,37.67
2023-01-29T21:19:23.561Z,37.67
2023-01-29T21:29:24.965Z,37.56
2023-01-29T21:39:26.361Z,37.69
2023-01-29T21:49:27.779Z,37.61
2023-01-29T21:59:29.148Z,37.73
2023-01-29T22:09:30.516Z,37.80
2023-01-29T22:19:32.009Z,37.91
2023-01-29T22:29:33.586Z,37.85
2023-01-29T22:39:34.983Z,38.04
2023-01-29T22:49:36.364Z,38.28
2023-01-29T22:59:37.906Z,38.29
2023-01-29T23:09:39.300Z,38.30
2023-01-29T23:19:40.804Z,38.29
2023-01-29T23:29:46.505Z,38.52
2023-01-29T23:39:48.424Z,38.47
2023-01-29T23:49:49.868Z,38.20
2023-01-29T23:59:51.253Z,37.84
